createdAt,value
2018-01-25T00:02:00.297Z,1.40
2018-01-25T00:04:28.640Z,1.33
2018-01-25T00:06:56.345Z,1.83
2018-01-25T00:09:24.925Z,1.43
2018-01-25T00:11:53.253Z,1.40
2018-01-25T00:14:20.817Z,1.40
2018-01-25T00:16:48.382Z,1.43
2018-01-25T00:19:15.983Z,1.30
2018-01-25T00:21:43.582Z,2.00
2018-01-25T00:24:11.196Z,1.30
2018-01-25T00:26:38.773Z,1.60
2018-01-25T00:29:07.087Z,1.23
2018-01-25T00:31:34.641Z,1.30
2018-01-25T00:34:02.945Z,1.57
2018-01-25T00:36:30.522Z,1.43
2018-01-25T00:38:58.078Z,1.17
2018-01-25T00:41:25.634Z,1.43
2018-01-25T00:43:53.193Z,1.70
2018-01-25T00:46:20.770Z,1.40
2018-01-25T00:48:48.330Z,1.53
2018-01-25T00:51:15.948Z,1.37
2018-01-25T00:53:43.536Z,1.60
2018-01-25T00:56:11.092Z,1.60
2018-01-25T00:58:39.178Z,1.20
2018-01-25T01:01:06.717Z,1.50
2018-01-25T01:03:34.285Z,1.53
2018-01-25T01:06:01.846Z,1.33
2018-01-25T01:08:30.320Z,1.27
2018-01-25T01:10:57.886Z,1.33
2018-01-25T01:13:25.465Z,1.23
2018-01-25T01:15:53.032Z,1.43
2018-01-25T01:18:20.596Z,1.17
2018-01-25T01:20:48.161Z,1.80
2018-01-25T01:23:16.710Z,1.43
2018-01-25T01:25:44.254Z,1.10
2018-01-25T01:28:11.921Z,1.60
2018-01-25T01:30:39.485Z,1.33
2018-01-25T01:33:07.037Z,1.50
2018-01-25T01:35:34.573Z,1.30
2018-01-25T01:38:02.880Z,0.97
2018-01-25T01:40:30.438Z,1.10
2018-01-25T01:42:58.817Z,0.87
2018-01-25T01:45:27.138Z,1.10
2018-01-25T01:47:54.716Z,1.60
2018-01-25T01:50:22.321Z,0.70
2018-01-25T01:52:49.876Z,1.00
2018-01-25T01:55:17.511Z,1.20
2018-01-25T01:57:45.116Z,0.90
2018-01-25T02:00:12.690Z,1.17
2018-01-25T02:02:40.234Z,0.90
2018-01-25T02:05:07.797Z,0.90
2018-01-25T02:07:35.365Z,0.97
2018-01-25T02:10:02.918Z,0.87
2018-01-25T02:12:30.637Z,1.13
2018-01-25T02:14:58.196Z,1.10
2018-01-25T02:17:25.757Z,1.13
2018-01-25T02:19:53.488Z,0.90
2018-01-25T02:22:21.033Z,1.30
2018-01-25T02:24:49.633Z,1.27
2018-01-25T02:27:17.234Z,1.30
2018-01-25T02:29:44.811Z,1.60
2018-01-25T02:32:12.349Z,1.17
2018-01-25T02:34:39.924Z,1.63
2018-01-25T02:37:07.505Z,1.63
2018-01-25T02:39:35.831Z,1.60
2018-01-25T02:42:03.439Z,1.70
2018-01-25T02:44:31.009Z,1.70
2018-01-25T02:46:59.328Z,1.83
2018-01-25T02:49:26.887Z,1.80
2018-01-25T02:51:54.438Z,1.20
2018-01-25T02:54:21.990Z,1.30
2018-01-25T02:56:50.430Z,1.60
2018-01-25T02:59:17.992Z,0.97
2018-01-25T03:01:45.546Z,1.07
2018-01-25T03:04:13.098Z,0.90
2018-01-25T03:06:40.658Z,1.53
2018-01-25T03:09:08.205Z,0.73
2018-01-25T03:11:35.778Z,0.80
2018-01-25T03:14:03.351Z,0.73
2018-01-25T03:16:30.921Z,0.80
2018-01-25T03:18:58.462Z,1.10
2018-01-25T03:21:26.177Z,0.90
2018-01-25T03:23:54.755Z,0.70
2018-01-25T03:26:23.294Z,0.80
2018-01-25T03:28:50.868Z,0.90
2018-01-25T03:31:19.224Z,0.80
2018-01-25T03:33:46.783Z,0.70
2018-01-25T03:36:14.357Z,1.05
2018-01-25T03:38:41.917Z,0.80
2018-01-25T03:41:09.473Z,0.73
2018-01-25T03:43:37.033Z,0.90
2018-01-25T03:46:04.664Z,0.90
2018-01-25T03:48:33.744Z,0.90
2018-01-25T03:51:01.307Z,0.85
2018-01-25T03:53:28.869Z,0.90
2018-01-25T03:55:57.183Z,0.98
2018-01-25T03:58:24.964Z,1.10
2018-01-25T04:00:52.524Z,0.80
2018-01-25T04:03:20.089Z,1.05
2018-01-25T04:05:47.638Z,0.82
2018-01-25T04:08:15.208Z,0.90
2018-01-25T04:10:42.747Z,1.05
2018-01-25T04:13:10.317Z,0.60
2018-01-25T04:15:37.885Z,1.00
2018-01-25T04:18:05.438Z,0.90
2018-01-25T04:20:32.994Z,1.10
2018-01-25T04:23:00.684Z,1.45
2018-01-25T04:25:28.228Z,0.70
2018-01-25T04:27:55.774Z,0.90
2018-01-25T04:30:24.120Z,1.02
2018-01-25T04:32:51.765Z,1.00
2018-01-25T04:35:19.369Z,1.00
2018-01-25T04:37:47.723Z,1.42
2018-01-25T04:40:15.289Z,1.37
2018-01-25T04:42:42.836Z,1.40
2018-01-25T04:45:10.400Z,1.10
2018-01-25T04:47:37.969Z,1.80
2018-01-25T04:50:05.509Z,1.80
2018-01-25T04:52:33.067Z,1.60
2018-01-25T04:55:00.645Z,1.40
2018-01-25T04:57:28.217Z,1.35
2018-01-25T04:59:56.581Z,2.03
2018-01-25T05:02:25.118Z,1.62
2018-01-25T05:04:53.474Z,1.87
2018-01-25T05:07:21.237Z,1.63
2018-01-25T05:09:48.793Z,1.75
2018-01-25T05:12:16.340Z,1.58
2018-01-25T05:14:43.901Z,1.50
2018-01-25T05:17:26.325Z,1.50
2018-01-25T05:19:53.893Z,1.62
2018-01-25T05:22:21.453Z,1.60
2018-01-25T05:24:49.044Z,1.50
2018-01-25T05:27:17.402Z,1.30
2018-01-25T05:29:45.777Z,1.90
2018-01-25T05:32:13.345Z,1.40
2018-01-25T05:34:41.746Z,1.55
2018-01-25T05:37:10.130Z,2.12
2018-01-25T05:39:37.688Z,2.15
2018-01-25T05:42:06.039Z,1.52
2018-01-25T05:44:33.640Z,1.67
2018-01-25T05:47:01.257Z,2.00
2018-01-25T05:49:28.845Z,2.20
2018-01-25T05:51:56.398Z,2.17
2018-01-25T05:54:23.966Z,1.98
2018-01-25T05:56:51.521Z,2.05
2018-01-25T05:59:19.140Z,2.15
2018-01-25T06:01:46.702Z,1.60
2018-01-25T06:04:14.263Z,2.00
2018-01-25T06:06:42.022Z,1.80
2018-01-25T06:09:09.595Z,2.45
2018-01-25T06:11:37.206Z,2.20
2018-01-25T06:14:04.858Z,2.35
2018-01-25T06:16:33.200Z,2.80
2018-01-25T06:19:00.766Z,3.30
2018-01-25T06:21:29.092Z,2.35
2018-01-25T06:23:56.707Z,2.80
2018-01-25T06:26:24.265Z,2.70
2018-01-25T06:28:51.841Z,2.40
2018-01-25T06:31:19.409Z,2.60
2018-01-25T06:33:47.002Z,3.40
2018-01-25T06:36:14.562Z,3.40
2018-01-25T06:38:42.118Z,3.85
2018-01-25T06:41:09.785Z,4.20
2018-01-25T06:43:37.367Z,4.35
2018-01-25T06:46:05.716Z,3.40
2018-01-25T06:48:33.277Z,3.62
2018-01-25T06:51:00.841Z,3.40
2018-01-25T06:53:29.171Z,3.05
2018-01-25T06:55:56.721Z,3.87
2018-01-25T06:58:25.066Z,4.50
2018-01-25T07:00:53.572Z,3.55
2018-01-25T07:03:22.178Z,3.70
2018-01-25T07:05:49.861Z,4.35
2018-01-25T07:08:18.153Z,4.35
2018-01-25T07:10:45.857Z,4.22
2018-01-25T07:13:13.405Z,4.53
2018-01-25T07:15:40.960Z,4.80
2018-01-25T07:18:08.533Z,5.50
2018-01-25T07:20:36.881Z,5.50
2018-01-25T07:23:05.352Z,5.90
2018-01-25T07:25:32.925Z,6.65
2018-01-25T07:28:00.494Z,6.80
2018-01-25T07:30:28.052Z,7.28
2018-01-25T07:32:55.599Z,6.60
2018-01-25T07:35:23.193Z,7.82
2018-01-25T07:37:51.288Z,8.40
2018-01-25T07:40:18.860Z,7.37
2018-01-25T07:42:47.192Z,9.05
2018-01-25T07:45:14.781Z,7.28
2018-01-25T07:47:42.930Z,7.40
2018-01-25T07:50:10.480Z,6.90
2018-01-25T07:52:38.046Z,7.80
2018-01-25T07:55:05.619Z,9.57
2018-01-25T07:57:38.823Z,8.07
2018-01-25T08:00:07.237Z,10.38
2018-01-25T08:02:35.596Z,10.93
2018-01-25T08:05:03.222Z,9.82
2018-01-25T08:07:30.778Z,10.77
2018-01-25T08:09:58.489Z,9.85
2018-01-25T08:12:26.061Z,10.73
2018-01-25T08:14:53.625Z,10.70
2018-01-25T08:17:21.965Z,10.30
2018-01-25T08:19:49.579Z,11.13
2018-01-25T08:22:17.914Z,10.07
2018-01-25T08:24:45.470Z,10.90
2018-01-25T08:27:13.023Z,12.33
2018-01-25T08:29:40.653Z,11.00
2018-01-25T08:32:08.162Z,12.50
2018-01-25T08:34:35.726Z,10.53
2018-01-25T08:37:03.301Z,11.50
2018-01-25T08:39:30.866Z,11.17
2018-01-25T08:41:58.432Z,9.70
2018-01-25T08:44:26.133Z,11.60
2018-01-25T08:46:53.763Z,11.27
2018-01-25T08:49:21.437Z,10.55
2018-01-25T08:51:49.201Z,9.20
2018-01-25T08:54:16.785Z,10.10
2018-01-25T08:56:45.099Z,8.90
2018-01-25T08:59:12.660Z,10.00
2018-01-25T09:01:40.233Z,10.93
2018-01-25T09:04:08.602Z,12.03
2018-01-25T09:06:36.186Z,11.97
2018-01-25T09:09:03.729Z,10.55
2018-01-25T09:11:31.441Z,10.30
2018-01-25T09:13:59.013Z,11.50
2018-01-25T09:16:27.432Z,10.23
2018-01-25T09:18:55.016Z,10.97
2018-01-25T09:21:22.584Z,11.20
2018-01-25T09:23:50.149Z,11.67
2018-01-25T09:26:17.760Z,12.20
2018-01-25T09:28:45.312Z,11.00
2018-01-25T09:31:13.674Z,12.43
2018-01-25T09:33:41.237Z,11.00
2018-01-25T09:36:09.589Z,10.87
2018-01-25T09:38:37.137Z,11.73
2018-01-25T09:41:04.699Z,11.63
2018-01-25T09:43:32.278Z,12.53
2018-01-25T09:45:59.837Z,10.80
2018-01-25T09:48:28.221Z,12.33
2018-01-25T09:50:55.823Z,11.00
2018-01-25T09:53:24.176Z,10.50
2018-01-25T09:55:51.804Z,10.30
2018-01-25T09:58:19.377Z,9.50
2018-01-25T10:00:46.932Z,8.27
2018-01-25T10:03:14.526Z,8.10
2018-01-25T10:05:42.097Z,8.07
2018-01-25T10:08:10.425Z,8.47
2018-01-25T10:10:37.981Z,6.53
2018-01-25T10:13:05.542Z,6.00
2018-01-25T10:15:33.104Z,5.33
2018-01-25T10:18:00.669Z,5.37
2018-01-25T10:20:28.234Z,6.13
2018-01-25T10:22:55.816Z,5.40
2018-01-25T10:25:23.365Z,4.37
2018-01-25T10:27:50.908Z,4.20
2018-01-25T10:30:18.453Z,4.00
2018-01-25T10:32:46.085Z,4.50
2018-01-25T10:35:13.717Z,4.03
2018-01-25T10:37:41.270Z,4.30
2018-01-25T10:40:08.825Z,3.93
2018-01-25T10:42:37.381Z,3.93
2018-01-25T10:45:05.733Z,4.00
2018-01-25T10:47:33.298Z,5.00
2018-01-25T10:50:00.881Z,4.10
2018-01-25T10:52:29.200Z,4.43
2018-01-25T10:54:56.753Z,4.37
2018-01-25T10:57:24.372Z,5.77
2018-01-25T10:59:52.699Z,3.80
2018-01-25T11:02:21.143Z,3.10
2018-01-25T11:04:49.465Z,2.70
2018-01-25T11:07:17.024Z,2.50
2018-01-25T11:09:44.586Z,3.00
2018-01-25T11:12:12.952Z,2.80
2018-01-25T11:14:40.519Z,3.17
2018-01-25T11:17:08.084Z,2.80
2018-01-25T11:19:35.639Z,3.90
2018-01-25T11:22:03.216Z,3.47
2018-01-25T11:24:30.914Z,3.07
2018-01-25T11:26:58.584Z,3.53
2018-01-25T11:29:26.181Z,3.60
2018-01-25T11:31:53.752Z,4.23
2018-01-25T11:34:21.292Z,2.87
2018-01-25T11:36:49.645Z,2.80
2018-01-25T11:39:17.206Z,2.97
2018-01-25T11:41:45.545Z,3.47
2018-01-25T11:44:13.229Z,3.00
2018-01-25T11:46:40.776Z,3.30
2018-01-25T11:49:08.358Z,4.50
2018-01-25T11:51:35.927Z,5.80
2018-01-25T11:54:04.262Z,3.90
2018-01-25T11:56:32.717Z,4.50
2018-01-25T11:59:00.303Z,4.33
2018-01-25T12:01:27.860Z,3.80
2018-01-25T12:03:55.454Z,2.83
2018-01-25T12:06:23.778Z,3.50
2018-01-25T12:08:51.652Z,2.87
2018-01-25T12:11:19.005Z,3.30
2018-01-25T12:13:46.572Z,3.10
2018-01-25T12:16:14.137Z,2.90
2018-01-25T12:18:41.715Z,3.67
2018-01-25T12:21:09.312Z,3.50
2018-01-25T12:23:37.654Z,3.10
2018-01-25T12:26:05.301Z,3.73
2018-01-25T12:28:33.074Z,3.30
2018-01-25T12:31:00.642Z,2.50
2018-01-25T12:33:28.226Z,3.23
2018-01-25T12:35:55.782Z,2.80
2018-01-25T12:38:23.339Z,2.90
2018-01-25T12:40:50.896Z,2.87
2018-01-25T12:43:18.490Z,2.77
2018-01-25T12:45:46.808Z,3.00
2018-01-25T12:48:14.400Z,2.57
2018-01-25T12:50:41.946Z,2.47
2018-01-25T12:53:09.537Z,2.70
2018-01-25T12:55:37.824Z,2.40
2018-01-25T12:58:05.409Z,2.40
2018-01-25T13:00:32.983Z,2.83
2018-01-25T13:03:00.573Z,2.47
2018-01-25T13:05:28.132Z,2.60
2018-01-25T13:07:55.742Z,1.90
2018-01-25T13:10:24.075Z,2.13
2018-01-25T13:12:51.646Z,2.97
2018-01-25T13:15:19.225Z,2.20
2018-01-25T13:17:46.766Z,2.30
2018-01-25T13:20:14.588Z,2.90
2018-01-25T13:22:42.899Z,3.23
2018-01-25T13:25:10.500Z,2.70
2018-01-25T13:27:38.049Z,2.13
2018-01-25T13:30:06.475Z,2.60
2018-01-25T13:32:34.032Z,3.00
2018-01-25T13:35:02.357Z,2.87
2018-01-25T13:37:29.930Z,2.33
2018-01-25T13:39:57.491Z,3.20
2018-01-25T13:42:25.807Z,2.60
2018-01-25T13:44:54.133Z,2.43
2018-01-25T13:47:21.681Z,1.97
2018-01-25T13:49:49.368Z,2.77
2018-01-25T13:54:56.117Z,2.70
2018-01-25T13:57:24.448Z,2.10
2018-01-25T13:59:52.099Z,2.23
2018-01-25T14:02:19.658Z,2.47
2018-01-25T14:04:47.322Z,8.07
2018-01-25T14:07:14.887Z,2.73
2018-01-25T14:09:42.441Z,2.50
2018-01-25T14:12:09.985Z,2.63
2018-01-25T14:14:37.545Z,2.10
2018-01-25T14:17:05.124Z,2.50
2018-01-25T14:19:32.681Z,3.00
2018-01-25T14:22:00.240Z,1.87
2018-01-25T14:24:27.974Z,3.53
2018-01-25T14:26:56.328Z,3.70
2018-01-25T14:29:23.908Z,4.50
2018-01-25T14:31:52.187Z,2.27
2018-01-25T14:34:19.987Z,1.93
2018-01-25T14:36:47.532Z,2.57
2018-01-25T14:39:15.099Z,2.27
2018-01-25T14:41:42.780Z,2.17
2018-01-25T14:44:10.349Z,2.20
2018-01-25T14:46:37.910Z,2.40
2018-01-25T14:49:05.469Z,2.57
2018-01-25T14:51:33.407Z,1.97
2018-01-25T14:54:01.047Z,2.10
2018-01-25T14:56:28.607Z,2.33
2018-01-25T14:58:56.265Z,2.23
2018-01-25T15:01:23.834Z,2.33
2018-01-25T15:03:51.426Z,2.80
2018-01-25T15:06:19.765Z,2.27
2018-01-25T15:08:47.475Z,2.53
2018-01-25T15:11:15.817Z,2.40
2018-01-25T15:13:43.538Z,2.57
2018-01-25T15:16:11.128Z,2.27
2018-01-25T15:18:38.693Z,2.20
2018-01-25T15:21:06.244Z,2.80
2018-01-25T15:23:33.830Z,2.57
2018-01-25T15:26:06.210Z,2.70
2018-01-25T15:28:33.772Z,3.00
2018-01-25T15:31:01.341Z,2.23
2018-01-25T15:33:28.969Z,2.17
2018-01-25T15:35:57.284Z,2.30
2018-01-25T15:38:24.825Z,2.30
2018-01-25T15:40:52.389Z,2.20
2018-01-25T15:43:19.957Z,2.03
2018-01-25T15:45:47.535Z,2.60
2018-01-25T15:48:15.109Z,2.30
2018-01-25T15:50:42.758Z,2.63
2018-01-25T15:53:10.346Z,3.50
2018-01-25T15:55:38.028Z,3.00
2018-01-25T15:58:05.605Z,3.10
2018-01-25T16:00:33.167Z,3.30
2018-01-25T16:03:00.748Z,3.20
2018-01-25T16:05:28.353Z,3.73
2018-01-25T16:07:55.877Z,3.63
2018-01-25T16:10:23.595Z,3.47
2018-01-25T16:12:51.181Z,3.90
2018-01-25T16:15:18.769Z,3.63
2018-01-25T16:17:46.348Z,4.13
2018-01-25T16:20:13.949Z,4.20
2018-01-25T16:22:42.105Z,3.90
2018-01-25T16:25:10.477Z,3.50
2018-01-25T16:27:38.042Z,3.13
2018-01-25T16:30:06.379Z,3.10
2018-01-25T16:32:33.925Z,3.30
2018-01-25T16:35:01.614Z,3.03
2018-01-25T16:37:29.193Z,3.85
2018-01-25T16:39:56.752Z,3.20
2018-01-25T16:42:24.354Z,3.27
2018-01-25T16:44:52.034Z,3.50
2018-01-25T16:47:19.627Z,4.00
2018-01-25T16:49:47.182Z,4.40
2018-01-25T16:52:14.727Z,4.97
2018-01-25T16:54:42.469Z,6.00
2018-01-25T16:57:10.130Z,4.80
2018-01-25T16:59:37.701Z,4.47
2018-01-25T17:02:05.296Z,5.70
2018-01-25T17:04:32.840Z,5.23
2018-01-25T17:07:00.431Z,6.28
2018-01-25T17:09:28.038Z,6.20
2018-01-25T17:11:55.613Z,7.00
2018-01-25T17:14:23.270Z,6.03
2018-01-25T17:16:50.826Z,7.00
2018-01-25T17:19:18.393Z,7.85
2018-01-25T17:21:46.346Z,6.73
2018-01-25T17:24:14.158Z,7.17
2018-01-25T17:26:42.470Z,6.97
2018-01-25T17:29:10.052Z,7.87
2018-01-25T17:31:37.631Z,7.77
2018-01-25T17:34:05.226Z,8.40
2018-01-25T17:36:33.645Z,6.73
2018-01-25T17:39:01.233Z,8.70
2018-01-25T17:41:28.782Z,7.77
2018-01-25T17:43:56.330Z,6.90
2018-01-25T17:46:23.881Z,7.40
2018-01-25T17:48:51.429Z,6.53
2018-01-25T17:51:19.036Z,6.60
2018-01-25T17:53:46.633Z,6.10
2018-01-25T17:56:14.952Z,5.40
2018-01-25T17:58:42.497Z,7.23
2018-01-25T18:01:10.065Z,8.50
2018-01-25T18:03:37.685Z,10.30
2018-01-25T18:06:05.219Z,6.70
2018-01-25T18:08:32.797Z,7.33
2018-01-25T18:11:00.912Z,6.12
2018-01-25T18:13:28.553Z,6.90
2018-01-25T18:15:57.182Z,7.90
2018-01-25T18:18:24.753Z,7.12
2018-01-25T18:20:52.354Z,6.05
2018-01-25T18:23:20.887Z,5.40
2018-01-25T18:25:48.566Z,5.60
2018-01-25T18:28:16.188Z,7.78
2018-01-25T18:30:43.781Z,7.47
2018-01-25T18:33:11.319Z,8.85
2018-01-25T18:35:39.022Z,7.10
2018-01-25T18:38:06.643Z,7.10
2018-01-25T18:40:34.234Z,6.65
2018-01-25T18:43:01.807Z,7.55
2018-01-25T18:45:29.366Z,6.93
2018-01-25T18:47:56.919Z,6.43
2018-01-25T18:50:24.482Z,6.60
2018-01-25T18:52:52.059Z,4.90
2018-01-25T18:55:19.617Z,4.65
2018-01-25T18:57:48.230Z,5.43
2018-01-25T19:00:15.786Z,5.62
2018-01-25T19:02:43.347Z,4.97
2018-01-25T19:05:11.015Z,5.47
2018-01-25T19:07:38.597Z,5.30
2018-01-25T19:10:07.155Z,5.97
2018-01-25T19:12:34.719Z,6.40
2018-01-25T19:15:02.451Z,7.33
2018-01-25T19:17:30.074Z,6.90
2018-01-25T19:19:58.422Z,6.43
2018-01-25T19:22:26.755Z,6.72
2018-01-25T19:24:54.323Z,8.20
2018-01-25T19:27:22.838Z,6.25
2018-01-25T19:29:50.401Z,6.25
2018-01-25T19:32:18.004Z,6.30
2018-01-25T19:34:46.345Z,5.62
2018-01-25T19:37:14.865Z,7.55
2018-01-25T19:39:44.050Z,4.22
2018-01-25T19:42:11.632Z,5.07
2018-01-25T19:44:40.071Z,5.12
2018-01-25T19:47:07.676Z,5.55
2018-01-25T19:49:36.041Z,5.05
2018-01-25T19:52:03.777Z,5.68
2018-01-25T19:54:31.617Z,5.70
2018-01-25T19:56:59.817Z,5.70
2018-01-25T19:59:27.467Z,5.10
2018-01-25T20:01:55.157Z,6.62
2018-01-25T20:04:23.101Z,6.72
2018-01-25T20:06:51.077Z,6.18
2018-01-25T20:09:18.698Z,7.03
2018-01-25T20:11:47.053Z,6.85
2018-01-25T20:14:14.624Z,5.78
2018-01-25T20:16:42.217Z,5.50
2018-01-25T20:19:09.803Z,6.87
2018-01-25T20:21:38.221Z,6.62
2018-01-25T20:24:06.626Z,6.35
2018-01-25T20:26:34.216Z,5.43
2018-01-25T20:29:02.493Z,6.28
2018-01-25T20:31:30.252Z,5.50
2018-01-25T20:33:57.938Z,5.35
2018-01-25T20:36:25.548Z,5.62
2018-01-25T20:38:53.164Z,6.72
2018-01-25T20:41:20.781Z,5.60
2018-01-25T20:43:49.118Z,5.10
2018-01-25T20:46:16.866Z,5.90
2018-01-25T20:48:44.841Z,9.35
2018-01-25T20:51:12.892Z,10.68
2018-01-25T20:53:42.368Z,9.68
2018-01-25T20:56:09.996Z,6.87
2018-01-25T20:58:37.646Z,6.40
2018-01-25T21:01:05.620Z,9.82
2018-01-25T21:03:33.597Z,8.10
2018-01-25T21:06:01.400Z,8.95
2018-01-25T21:08:28.983Z,8.95
2018-01-25T21:10:57.424Z,9.23
2018-01-25T21:13:25.045Z,8.45
2018-01-25T21:15:52.639Z,9.05
2018-01-25T21:18:20.229Z,8.15
2018-01-25T21:20:47.833Z,9.15
2018-01-25T21:23:17.068Z,8.55
2018-01-25T21:25:44.635Z,9.90
2018-01-25T21:28:12.266Z,9.38
2018-01-25T21:30:39.911Z,8.80
2018-01-25T21:33:07.516Z,6.55
2018-01-25T21:35:35.972Z,8.30
2018-01-25T21:38:03.543Z,8.38
2018-01-25T21:40:31.137Z,7.68
2018-01-25T21:42:58.740Z,8.63
2018-01-25T21:45:27.072Z,7.62
2018-01-25T21:47:54.652Z,8.57
2018-01-25T21:50:22.222Z,7.50
2018-01-25T21:52:49.794Z,8.20
2018-01-25T21:55:17.357Z,8.38
2018-01-25T21:57:45.097Z,8.23
2018-01-25T22:00:12.668Z,9.10
2018-01-25T22:02:40.238Z,7.80
2018-01-25T22:05:07.792Z,9.40
2018-01-25T22:07:35.374Z,7.05
2018-01-25T22:10:03.137Z,9.80
2018-01-25T22:12:30.718Z,8.65
2018-01-25T22:14:58.330Z,9.88
2018-01-25T22:17:25.896Z,10.88
2018-01-25T22:19:53.457Z,9.32
2018-01-25T22:22:21.056Z,10.95
2018-01-25T22:24:48.645Z,10.07
2018-01-25T22:27:16.232Z,8.57
2018-01-25T22:29:43.794Z,9.75
2018-01-25T22:32:11.405Z,8.55
2018-01-25T22:34:39.017Z,8.10
2018-01-25T22:37:06.563Z,9.32
2018-01-25T22:39:34.136Z,7.68
2018-01-25T22:42:01.734Z,7.25
2018-01-25T22:44:29.284Z,7.65
2018-01-25T22:46:57.614Z,8.38
2018-01-25T22:49:25.198Z,7.30
2018-01-25T22:51:52.740Z,7.90
2018-01-25T22:54:20.309Z,7.47
2018-01-25T22:56:47.883Z,8.32
2018-01-25T22:59:15.590Z,7.35
